createdAt,value
2022-10-12T00:01:46.536Z,18.63
2022-10-12T00:04:13.265Z,11.33
2022-10-12T00:06:39.945Z,5.83
2022-10-12T00:09:06.684Z,4.10
2022-10-12T00:11:33.466Z,14.50
2022-10-12T00:14:01.333Z,10.20
2022-10-12T00:16:31.531Z,12.87
2022-10-12T00:18:59.094Z,4.80
2022-10-12T00:21:27.056Z,9.97
2022-10-12T00:24:00.042Z,2.87
2022-10-12T00:26:27.656Z,8.73
2022-10-12T00:28:57.477Z,8.40
2022-10-12T00:31:24.687Z,13.47
2022-10-12T00:33:51.583Z,7.90
2022-10-12T00:36:26.314Z,6.77
2022-10-12T00:38:54.844Z,22.87
2022-10-12T00:41:24.743Z,13.17
2022-10-12T00:43:57.650Z,7.03
2022-10-12T00:46:42.524Z,9.10
2022-10-12T00:49:12.812Z,5.67
2022-10-12T00:51:44.312Z,3.47
2022-10-12T00:54:14.737Z,4.43
2022-10-12T00:56:42.534Z,3.63
2022-10-12T00:59:13.152Z,4.57
2022-10-12T01:01:39.974Z,6.17
2022-10-12T01:04:07.056Z,14.23
2022-10-12T01:06:34.653Z,2.23
2022-10-12T01:09:01.724Z,6.97
2022-10-12T01:11:28.464Z,8.70
2022-10-12T01:13:55.133Z,11.57
2022-10-12T01:16:40.737Z,2.90
2022-10-12T01:19:25.975Z,6.23
2022-10-12T01:22:00.072Z,3.60
2022-10-12T01:24:35.935Z,12.50
2022-10-12T01:27:44.286Z,6.40
2022-10-12T01:30:17.949Z,7.30
2022-10-12T01:33:06.536Z,3.70
2022-10-12T01:35:44.079Z,5.50
2022-10-12T01:38:10.754Z,4.40
2022-10-12T01:40:44.333Z,13.30
2022-10-12T01:43:11.014Z,6.03
2022-10-12T01:45:37.881Z,7.07
2022-10-12T01:48:05.213Z,4.17
2022-10-12T01:50:47.973Z,5.63
2022-10-12T01:53:23.575Z,5.37
2022-10-12T01:56:05.533Z,7.60
2022-10-12T01:58:35.187Z,12.73
2022-10-12T02:01:26.669Z,7.33
2022-10-12T02:04:36.976Z,11.17
2022-10-12T02:07:13.936Z,6.10
2022-10-12T02:09:41.549Z,4.67
2022-10-12T02:12:16.393Z,3.10
2022-10-12T02:15:03.508Z,4.80
2022-10-12T02:17:30.603Z,17.57
2022-10-12T02:20:00.002Z,13.97
2022-10-12T02:22:34.489Z,3.83
2022-10-12T02:25:06.625Z,3.50
2022-10-12T02:27:35.410Z,3.53
2022-10-12T02:30:02.894Z,7.87
2022-10-12T02:33:18.086Z,8.60
2022-10-12T02:36:16.393Z,11.13
2022-10-12T02:38:53.647Z,4.83
2022-10-12T02:41:35.897Z,6.40
2022-10-12T02:44:04.487Z,8.77
2022-10-12T02:46:32.534Z,5.07
2022-10-12T02:49:00.273Z,8.87
2022-10-12T02:51:29.010Z,3.70
2022-10-12T02:53:56.643Z,12.87
2022-10-12T02:56:23.955Z,8.57
2022-10-12T02:58:50.711Z,5.10
2022-10-12T03:01:17.906Z,4.77
2022-10-12T03:03:45.409Z,5.20
2022-10-12T03:06:12.716Z,4.63
2022-10-12T03:08:39.945Z,10.10
2022-10-12T03:11:08.558Z,6.40
2022-10-12T03:13:35.555Z,27.30
2022-10-12T03:16:06.924Z,21.50
2022-10-12T03:18:34.636Z,5.23
2022-10-12T03:21:01.620Z,5.77
2022-10-12T03:23:28.305Z,9.00
2022-10-12T03:25:55.104Z,10.20
2022-10-12T03:28:22.018Z,8.17
2022-10-12T03:30:48.785Z,14.80
2022-10-12T03:33:15.542Z,7.67
2022-10-12T03:35:45.625Z,12.20
2022-10-12T03:38:13.444Z,7.00
2022-10-12T03:40:40.311Z,6.90
2022-10-12T03:43:07.474Z,11.73
2022-10-12T03:45:34.356Z,4.43
2022-10-12T03:48:04.938Z,5.10
2022-10-12T03:50:34.902Z,8.07
2022-10-12T03:53:03.179Z,12.00
2022-10-12T03:55:30.025Z,8.93
2022-10-12T03:57:56.763Z,15.03
2022-10-12T04:00:23.742Z,5.40
2022-10-12T04:02:50.486Z,10.83
2022-10-12T04:05:17.527Z,7.40
2022-10-12T04:07:44.176Z,3.07
2022-10-12T04:10:10.896Z,12.83
2022-10-12T04:12:37.654Z,6.17
2022-10-12T04:15:04.865Z,6.00
2022-10-12T04:17:31.594Z,4.17
2022-10-12T04:19:58.157Z,16.00
2022-10-12T04:22:24.915Z,4.80
2022-10-12T04:24:51.943Z,5.40
2022-10-12T04:27:18.627Z,6.10
2022-10-12T04:29:45.372Z,3.27
2022-10-12T04:32:12.779Z,8.27
2022-10-12T04:34:40.016Z,9.80
2022-10-12T04:37:06.800Z,2.53
2022-10-12T04:39:33.542Z,12.30
2022-10-12T04:42:00.309Z,6.67
2022-10-12T04:44:31.968Z,14.13
2022-10-12T04:46:59.754Z,4.87
2022-10-12T04:49:26.502Z,4.03
2022-10-12T04:51:53.175Z,3.23
2022-10-12T04:54:19.835Z,5.40
2022-10-12T04:56:48.167Z,6.63
2022-10-12T04:59:15.208Z,6.10
2022-10-12T05:01:42.052Z,11.23
2022-10-12T05:04:08.932Z,7.00
2022-10-12T05:06:35.654Z,6.50
2022-10-12T05:09:02.442Z,7.53
2022-10-12T05:11:29.242Z,9.53
2022-10-12T05:13:56.026Z,8.97
2022-10-12T05:16:22.784Z,3.50
2022-10-12T05:18:49.531Z,7.20
2022-10-12T05:21:16.373Z,12.20
2022-10-12T05:23:43.224Z,9.03
2022-10-12T05:26:09.965Z,6.67
2022-10-12T05:28:40.819Z,5.30
2022-10-12T05:31:08.003Z,13.90
2022-10-12T05:33:34.804Z,9.63
2022-10-12T05:36:01.543Z,7.43
2022-10-12T05:38:28.186Z,30.27
2022-10-12T05:40:59.371Z,19.13
2022-10-12T05:43:26.906Z,15.13
2022-10-12T05:45:53.625Z,38.63
2022-10-12T05:48:20.364Z,98.93
2022-10-12T05:50:47.097Z,120.97
2022-10-12T05:53:13.881Z,55.47
2022-10-12T05:55:40.712Z,60.87
2022-10-12T05:58:07.402Z,77.90
2022-10-12T06:00:34.132Z,72.20
2022-10-12T06:03:00.812Z,83.80
2022-10-12T06:05:27.552Z,51.17
2022-10-12T06:07:54.322Z,58.17
2022-10-12T06:10:21.004Z,54.70
2022-10-12T06:12:47.693Z,49.77
2022-10-12T06:15:14.405Z,49.83
2022-10-12T06:17:41.124Z,55.87
2022-10-12T06:20:08.204Z,48.00
2022-10-12T06:22:35.418Z,33.87
2022-10-12T06:25:02.443Z,29.60
2022-10-12T06:27:29.236Z,30.27
2022-10-12T06:29:56.065Z,93.03
2022-10-12T06:32:22.766Z,70.27
2022-10-12T06:34:49.542Z,43.10
2022-10-12T06:37:44.466Z,24.10
2022-10-12T06:40:03.346Z,18.43
2022-10-12T06:42:30.092Z,24.30
2022-10-12T06:44:56.912Z,16.77
2022-10-12T06:47:23.523Z,16.83
2022-10-12T06:49:50.229Z,17.10
2022-10-12T06:52:27.958Z,18.73
2022-10-12T06:54:54.635Z,13.00
2022-10-12T06:57:21.554Z,6.63
2022-10-12T06:59:48.515Z,23.17
2022-10-12T07:02:15.279Z,10.47
2022-10-12T07:04:42.035Z,9.50
2022-10-12T07:07:08.834Z,9.53
2022-10-12T07:09:36.482Z,13.37
2022-10-12T07:12:03.212Z,12.73
2022-10-12T07:14:29.846Z,10.97
2022-10-12T07:16:56.571Z,7.57
2022-10-12T07:19:23.284Z,31.73
2022-10-12T07:21:49.983Z,17.63
2022-10-12T07:24:16.675Z,25.50
2022-10-12T07:26:43.384Z,30.50
2022-10-12T07:29:10.084Z,19.93
2022-10-12T07:31:37.689Z,17.17
2022-10-12T07:34:04.494Z,19.03
2022-10-12T07:36:54.362Z,14.43
2022-10-12T07:39:17.967Z,28.60
2022-10-12T07:41:44.852Z,27.53
2022-10-12T07:44:12.044Z,15.70
2022-10-12T07:46:38.785Z,28.53
2022-10-12T07:49:05.584Z,28.20
2022-10-12T07:51:32.364Z,35.07
2022-10-12T07:54:00.344Z,26.53
2022-10-12T07:56:27.222Z,26.63
2022-10-12T07:58:55.483Z,27.10
2022-10-12T08:01:25.067Z,23.83
2022-10-12T08:03:53.825Z,26.73
2022-10-12T08:06:24.841Z,13.73
2022-10-12T08:08:51.713Z,15.30
2022-10-12T08:11:19.303Z,15.60
2022-10-12T08:13:46.910Z,19.07
2022-10-12T08:16:16.446Z,12.07
2022-10-12T08:18:43.504Z,19.00
2022-10-12T08:21:12.201Z,11.90
2022-10-12T08:23:39.124Z,14.70
2022-10-12T08:26:06.776Z,14.03
2022-10-12T08:28:34.394Z,16.23
2022-10-12T08:31:01.154Z,22.07
2022-10-12T08:33:30.135Z,11.93
2022-10-12T08:35:56.904Z,11.63
2022-10-12T08:38:23.646Z,8.43
2022-10-12T08:40:56.872Z,18.13
2022-10-12T08:44:01.067Z,14.83
2022-10-12T08:46:28.830Z,9.10
2022-10-12T08:49:05.453Z,10.60
2022-10-12T08:51:45.292Z,14.40
2022-10-12T08:54:14.056Z,19.00
2022-10-12T08:56:41.529Z,16.33
2022-10-12T08:59:18.284Z,9.13
2022-10-12T09:02:26.234Z,18.60
2022-10-12T09:04:59.959Z,11.93
2022-10-12T09:07:30.733Z,29.37
2022-10-12T09:10:35.270Z,16.70
2022-10-12T09:13:04.132Z,13.87
2022-10-12T09:15:38.583Z,21.20
2022-10-12T09:18:19.092Z,9.17
2022-10-12T09:20:51.055Z,10.87
2022-10-12T09:23:25.383Z,15.27
2022-10-12T09:26:00.784Z,18.43
2022-10-12T09:28:31.976Z,20.47
2022-10-12T09:31:26.963Z,12.70
2022-10-12T09:34:06.432Z,12.90
2022-10-12T09:36:36.166Z,11.53
2022-10-12T09:39:05.751Z,14.40
2022-10-12T09:41:42.047Z,11.30
2022-10-12T09:44:15.922Z,19.70
2022-10-12T09:46:55.941Z,16.80
2022-10-12T09:49:22.795Z,15.37
2022-10-12T09:51:59.886Z,10.77
2022-10-12T09:54:27.784Z,24.07
2022-10-12T09:56:55.415Z,21.07
2022-10-12T09:59:33.373Z,27.30
2022-10-12T10:02:16.311Z,29.47
2022-10-12T10:04:44.505Z,20.23
2022-10-12T10:07:30.934Z,17.77
2022-10-12T10:10:13.897Z,13.50
2022-10-12T10:12:54.802Z,15.30
2022-10-12T10:15:24.912Z,20.43
2022-10-12T10:18:03.901Z,16.20
2022-10-12T10:20:33.222Z,18.70
2022-10-12T10:23:00.562Z,17.63
2022-10-12T10:25:27.440Z,15.27
2022-10-12T10:28:30.260Z,11.93
2022-10-12T10:31:22.701Z,20.33
2022-10-12T10:34:13.181Z,10.03
2022-10-12T10:37:00.062Z,11.47
2022-10-12T10:39:30.621Z,12.73
2022-10-12T10:42:09.861Z,20.33
2022-10-12T10:44:37.313Z,11.10
2022-10-12T10:47:13.541Z,14.87
2022-10-12T10:49:50.224Z,12.57
2022-10-12T10:52:36.701Z,13.50
2022-10-12T10:55:22.512Z,13.90
2022-10-12T10:58:01.382Z,14.23
2022-10-12T11:00:44.516Z,14.33
2022-10-12T11:03:17.476Z,13.80
2022-10-12T11:05:52.604Z,19.03
2022-10-12T11:08:26.143Z,21.33
2022-10-12T11:11:02.723Z,15.57
2022-10-12T11:13:45.659Z,15.40
2022-10-12T11:16:34.641Z,17.13
2022-10-12T11:19:33.563Z,19.30
2022-10-12T11:22:12.880Z,11.33
2022-10-12T11:24:50.361Z,14.30
2022-10-12T11:27:39.332Z,17.30
2022-10-12T11:30:20.599Z,35.23
2022-10-12T11:33:09.470Z,12.30
2022-10-12T11:35:38.631Z,12.60
2022-10-12T11:38:15.430Z,17.70
2022-10-12T11:41:14.228Z,13.33
2022-10-12T11:44:30.349Z,14.20
2022-10-12T11:47:08.901Z,16.07
2022-10-12T11:49:47.021Z,10.27
2022-10-12T11:52:14.281Z,8.80
2022-10-12T11:54:49.492Z,7.23
2022-10-12T11:57:26.514Z,9.40
2022-10-12T11:59:59.281Z,10.90
2022-10-12T12:02:32.921Z,9.23
2022-10-12T12:05:00.280Z,9.50
2022-10-12T12:07:48.851Z,14.27
2022-10-12T12:10:37.417Z,17.23
2022-10-12T12:13:18.262Z,12.67
2022-10-12T12:15:47.980Z,13.40
2022-10-12T12:18:17.371Z,16.97
2022-10-12T12:20:44.138Z,11.90
2022-10-12T12:23:29.693Z,14.80
2022-10-12T12:26:16.126Z,6.73
2022-10-12T12:28:48.957Z,10.40
2022-10-12T12:31:26.145Z,15.53
2022-10-12T12:34:15.264Z,11.10
2022-10-12T12:36:47.282Z,16.97
2022-10-12T12:39:33.553Z,10.43
2022-10-12T12:42:02.948Z,7.00
2022-10-12T12:44:40.742Z,14.33
2022-10-12T12:47:32.648Z,7.80
2022-10-12T12:50:33.910Z,9.40
2022-10-12T12:53:15.169Z,16.70
2022-10-12T12:56:05.064Z,8.27
2022-10-12T12:58:40.764Z,9.27
2022-10-12T13:01:27.363Z,12.70
2022-10-12T13:04:25.022Z,7.20
2022-10-12T13:06:51.708Z,5.90
2022-10-12T13:09:25.481Z,6.10
2022-10-12T13:12:14.100Z,7.60
2022-10-12T13:15:13.234Z,10.13
2022-10-12T13:17:49.602Z,12.30
2022-10-12T13:20:19.989Z,8.40
2022-10-12T13:22:47.720Z,11.43
2022-10-12T13:25:40.840Z,11.23
2022-10-12T13:28:12.383Z,8.43
2022-10-12T13:30:55.201Z,10.70
2022-10-12T13:33:35.112Z,9.73
2022-10-12T13:36:29.373Z,8.73
2022-10-12T13:38:57.981Z,12.43
2022-10-12T13:41:26.181Z,8.60
2022-10-12T13:44:04.281Z,10.00
2022-10-12T13:46:48.608Z,11.90
2022-10-12T13:49:19.761Z,7.80
2022-10-12T13:51:50.064Z,6.83
2022-10-12T13:54:22.972Z,9.70
2022-10-12T13:56:53.661Z,9.33
2022-10-12T13:59:22.820Z,11.80
2022-10-12T14:01:50.485Z,5.20
2022-10-12T14:04:17.221Z,11.80
2022-10-12T14:06:47.821Z,11.10
2022-10-12T14:09:21.302Z,7.73
2022-10-12T14:11:48.478Z,10.83
2022-10-12T14:14:35.801Z,8.53
2022-10-12T14:17:02.781Z,16.30
2022-10-12T14:19:56.121Z,8.33
2022-10-12T14:22:31.571Z,3.40
2022-10-12T14:25:18.681Z,8.83
2022-10-12T14:27:45.461Z,10.93
2022-10-12T14:30:21.260Z,4.60
2022-10-12T14:32:48.984Z,3.83
2022-10-12T14:35:18.440Z,7.13
2022-10-12T14:37:46.342Z,25.83
2022-10-12T14:40:26.771Z,7.83
2022-10-12T14:43:12.429Z,7.77
2022-10-12T14:45:39.390Z,4.90
2022-10-12T14:48:14.160Z,5.10
2022-10-12T14:50:40.914Z,9.40
2022-10-12T14:53:11.441Z,7.20
2022-10-12T14:55:38.262Z,4.87
2022-10-12T14:58:11.102Z,8.47
2022-10-12T15:00:38.712Z,10.87
2022-10-12T15:03:05.500Z,11.93
2022-10-12T15:05:34.261Z,10.80
2022-10-12T15:08:01.754Z,15.37
2022-10-12T15:10:29.275Z,4.60
2022-10-12T15:12:55.953Z,10.10
2022-10-12T15:15:43.871Z,8.50
2022-10-12T15:18:10.684Z,14.17
2022-10-12T15:20:37.974Z,10.13
2022-10-12T15:23:05.071Z,4.80
2022-10-12T15:25:34.830Z,7.53
2022-10-12T15:28:02.745Z,4.30
2022-10-12T15:30:29.531Z,14.60
2022-10-12T15:32:56.221Z,17.47
2022-10-12T15:35:35.336Z,10.43
2022-10-12T15:38:02.481Z,16.83
2022-10-12T15:40:30.161Z,9.53
2022-10-12T15:42:57.172Z,8.17
2022-10-12T15:45:26.773Z,11.43
2022-10-12T15:47:54.303Z,9.10
2022-10-12T15:50:24.412Z,10.63
2022-10-12T15:52:51.401Z,5.30
2022-10-12T15:55:24.630Z,11.33
2022-10-12T15:57:51.969Z,6.57
2022-10-12T16:00:20.842Z,8.67
2022-10-12T16:02:47.842Z,23.47
2022-10-12T16:05:21.450Z,10.43
2022-10-12T16:07:48.551Z,5.80
2022-10-12T16:10:16.552Z,7.13
2022-10-12T16:12:45.322Z,13.00
2022-10-12T16:15:14.312Z,6.37
2022-10-12T16:17:41.060Z,12.40
2022-10-12T16:20:09.501Z,11.70
2022-10-12T16:22:36.781Z,16.30
2022-10-12T16:25:05.802Z,16.13
2022-10-12T16:27:32.703Z,29.37
2022-10-12T16:29:59.910Z,20.70
2022-10-12T16:32:27.980Z,14.43
2022-10-12T16:34:54.909Z,15.03
2022-10-12T16:37:21.942Z,12.90
2022-10-12T16:39:48.804Z,21.30
2022-10-12T16:42:15.990Z,17.90
2022-10-12T16:44:42.982Z,15.03
2022-10-12T16:47:10.026Z,21.53
2022-10-12T16:49:36.743Z,13.70
2022-10-12T16:52:04.722Z,14.00
2022-10-12T16:54:31.442Z,11.30
2022-10-12T16:56:58.211Z,23.00
2022-10-12T16:59:25.024Z,9.90
2022-10-12T17:01:52.311Z,8.80
2022-10-12T17:04:21.180Z,12.37
2022-10-12T17:06:48.410Z,7.63
2022-10-12T17:09:15.685Z,11.50
2022-10-12T17:11:42.429Z,9.70
2022-10-12T17:14:12.391Z,9.60
2022-10-12T17:16:48.111Z,8.67
2022-10-12T17:19:18.739Z,17.77
2022-10-12T17:21:46.537Z,26.00
2022-10-12T17:24:14.777Z,14.50
2022-10-12T17:26:42.167Z,11.50
2022-10-12T17:29:11.735Z,12.30
2022-10-12T17:31:38.547Z,8.17
2022-10-12T17:34:07.245Z,7.47
2022-10-12T17:36:35.272Z,6.60
2022-10-12T17:39:02.042Z,5.10
2022-10-12T17:41:29.480Z,6.93
2022-10-12T17:43:56.885Z,17.10
2022-10-12T17:46:23.719Z,37.23
2022-10-12T17:48:51.024Z,49.47
2022-10-12T17:51:18.349Z,18.77
2022-10-12T17:53:45.162Z,18.80
2022-10-12T17:56:13.304Z,9.57
2022-10-12T17:58:40.170Z,5.20
2022-10-12T18:01:15.712Z,13.57
2022-10-12T18:03:44.694Z,5.10
2022-10-12T18:06:15.742Z,12.43
2022-10-12T18:08:43.777Z,62.63
2022-10-12T18:11:10.701Z,10.90
2022-10-12T18:13:37.961Z,16.50
2022-10-12T18:16:09.757Z,10.90
2022-10-12T18:18:37.366Z,7.40
2022-10-12T18:21:08.613Z,6.37
2022-10-12T18:23:35.492Z,16.10
2022-10-12T18:26:10.379Z,8.43
2022-10-12T18:28:37.565Z,6.27
2022-10-12T18:31:05.034Z,12.37
2022-10-12T18:33:32.814Z,9.23
2022-10-12T18:36:04.379Z,16.83
2022-10-12T18:38:31.651Z,24.80
2022-10-12T18:41:11.032Z,14.87
2022-10-12T18:43:38.202Z,25.90
2022-10-12T18:46:10.185Z,27.87
2022-10-12T18:48:37.219Z,17.20
2022-10-12T18:51:20.711Z,14.67
2022-10-12T18:53:48.330Z,18.00
2022-10-12T18:56:15.333Z,12.50
2022-10-12T18:58:42.334Z,8.80
2022-10-12T19:01:14.710Z,13.20
2022-10-12T19:03:41.693Z,13.03
2022-10-12T19:06:19.771Z,12.63
2022-10-12T19:08:48.067Z,10.23
2022-10-12T19:11:17.724Z,10.10
2022-10-12T19:13:45.266Z,12.83
2022-10-12T19:16:17.294Z,9.80
2022-10-12T19:18:44.181Z,8.90
2022-10-12T19:21:13.484Z,11.90
2022-10-12T19:23:41.064Z,10.20
2022-10-12T19:26:10.422Z,15.23
2022-10-12T19:28:37.360Z,7.37
2022-10-12T19:31:16.255Z,13.17
2022-10-12T19:33:43.311Z,19.50
2022-10-12T19:36:11.837Z,6.97
2022-10-12T19:38:40.828Z,16.87
2022-10-12T19:41:08.953Z,18.87
2022-10-12T19:43:38.326Z,11.27
2022-10-12T19:46:10.307Z,9.40
2022-10-12T19:48:38.080Z,8.77
2022-10-12T19:51:07.898Z,5.67
2022-10-12T19:53:35.519Z,14.77
2022-10-12T19:56:14.195Z,12.43
2022-10-12T19:58:44.238Z,6.23
2022-10-12T20:01:15.373Z,9.37
2022-10-12T20:03:47.617Z,11.67
2022-10-12T20:06:15.200Z,12.60
2022-10-12T20:08:43.308Z,8.20
2022-10-12T20:11:15.593Z,8.93
2022-10-12T20:13:45.864Z,6.43
2022-10-12T20:16:13.739Z,15.23
2022-10-12T20:18:40.607Z,9.60
2022-10-12T20:21:09.553Z,11.03
2022-10-12T20:23:37.474Z,11.13
2022-10-12T20:26:13.196Z,5.00
2022-10-12T20:28:40.176Z,11.87
2022-10-12T20:31:07.914Z,7.50
2022-10-12T20:33:36.691Z,12.40
2022-10-12T20:36:04.505Z,11.20
2022-10-12T20:38:31.128Z,12.17
2022-10-12T20:41:05.961Z,10.33
2022-10-12T20:43:32.899Z,16.43
2022-10-12T20:46:06.385Z,23.83
2022-10-12T20:48:33.617Z,17.23
2022-10-12T20:51:00.237Z,22.80
2022-10-12T20:53:26.823Z,9.17
2022-10-12T20:55:53.858Z,21.60
2022-10-12T20:58:24.319Z,16.63
2022-10-12T21:01:14.544Z,14.80
2022-10-12T21:03:42.272Z,12.70
2022-10-12T21:06:11.049Z,13.60
2022-10-12T21:08:38.102Z,8.13
2022-10-12T21:11:05.491Z,14.27
2022-10-12T21:13:33.961Z,13.63
2022-10-12T21:16:00.610Z,9.13
2022-10-12T21:18:27.266Z,26.20
2022-10-12T21:20:58.619Z,11.70
2022-10-12T21:23:25.262Z,16.70
2022-10-12T21:25:52.382Z,14.00
2022-10-12T21:28:19.734Z,9.10
2022-10-12T21:30:46.806Z,10.00
2022-10-12T21:33:14.884Z,10.37
2022-10-12T21:35:41.485Z,14.53
2022-10-12T21:38:08.093Z,13.67
2022-10-12T21:40:34.932Z,12.57
2022-10-12T21:43:01.555Z,15.70
2022-10-12T21:45:28.414Z,12.63
2022-10-12T21:47:55.005Z,15.70
2022-10-12T21:50:21.600Z,11.57
2022-10-12T21:52:49.976Z,10.57
2022-10-12T21:55:16.961Z,13.57
2022-10-12T21:57:43.771Z,15.57
2022-10-12T22:00:11.019Z,15.13
2022-10-12T22:02:37.667Z,26.00
2022-10-12T22:05:04.617Z,33.87
2022-10-12T22:07:31.337Z,11.87
2022-10-12T22:09:57.872Z,15.90
2022-10-12T22:12:24.474Z,10.20
2022-10-12T22:14:51.144Z,9.07
2022-10-12T22:17:17.787Z,9.53
2022-10-12T22:19:44.410Z,23.67
2022-10-12T22:22:11.137Z,17.00
2022-10-12T22:24:37.720Z,16.80
2022-10-12T22:27:04.364Z,8.90
2022-10-12T22:29:30.966Z,11.93
2022-10-12T22:31:57.513Z,13.03
2022-10-12T22:34:24.117Z,7.33
2022-10-12T22:36:50.665Z,11.90
2022-10-12T22:39:17.827Z,11.30
2022-10-12T22:41:44.441Z,21.57
2022-10-12T22:44:10.996Z,9.40
2022-10-12T22:46:37.597Z,28.67
2022-10-12T22:49:04.414Z,6.70
2022-10-12T22:51:36.028Z,12.83
2022-10-12T22:54:03.567Z,16.13
2022-10-12T22:56:30.292Z,13.50
2022-10-12T22:58:59.294Z,8.47
2022-10-12T23:01:26.779Z,16.03
2022-10-12T23:03:54.274Z,14.47
2022-10-12T23:06:21.137Z,9.33
2022-10-12T23:08:48.359Z,10.37
2022-10-12T23:11:18.119Z,13.33
2022-10-12T23:13:45.101Z,5.40
2022-10-12T23:16:14.350Z,8.93
2022-10-12T23:18:41.498Z,14.50
2022-10-12T23:21:12.687Z,9.77
2022-10-12T23:23:39.946Z,11.13
2022-10-12T23:26:15.270Z,16.77
2022-10-12T23:28:42.338Z,9.90
2022-10-12T23:31:11.378Z,11.37
2022-10-12T23:33:38.072Z,15.60
2022-10-12T23:36:07.621Z,9.03
2022-10-12T23:38:36.541Z,15.47
2022-10-12T23:41:03.420Z,7.07
2022-10-12T23:43:30.101Z,12.57
2022-10-12T23:45:57.094Z,7.23
2022-10-12T23:48:24.769Z,14.00
2022-10-12T23:50:54.730Z,31.07
2022-10-12T23:53:22.455Z,10.50
2022-10-12T23:55:49.735Z,14.73
2022-10-12T23:58:16.861Z,12.23
